Mariq — SVA2152 — position and weather

sailwx.info

Track history (hours):
 
Tides and Currents Weather Stations Pressure Air Temp Water Temp Dewpoint Dewpoint Depression Visibility Wind Speed Wind Dir Waves Ship Positions

Mariq

Last reported at 2017-May-21 03:38 UTC. Time now 2017-May-23 17:04 UTC.
Position N 37°17' E 025°53'.

Length 57 m.

Type: Tanker. MMSI: 239758424.

Date/timePositionNaut miles runAvg speedWind from/ knotsBaromVisibWave heightAir tempDewpointWater temp
2017-May-21 03:38N 37°17' E 025°53'1 9.3
2017-May-21 03:31N 37°17' E 025°52'5 9.3
2017-May-21 03:00N 37°18' E 025°46'7 9.2
2017-May-21 02:14N 37°18' E 025°37'2 9.3
2017-May-21 02:00N 37°19' E 025°34'5 9.3
2017-May-21 01:30N 37°19' E 025°28'5 9.1
2017-May-21 01:00N 37°19' E 025°23'4 8.9
2017-May-21 00:30N 37°20' E 025°17'4 9.0
2017-May-21 00:00N 37°20' E 025°11'5 9.3
2017-May-20 23:31N 37°20' E 025°06'5 9.3
2017-May-20 23:01N 37°21' E 024°60'5 9.3
2017-May-20 22:30N 37°21' E 024°54'4 9.0
2017-May-20 22:00N 37°23' E 024°49'46 1.0
2017-May-18 21:29N 37°06' E 025°43'5 9.6
2017-May-18 21:00N 37°10' E 025°39'5 9.6
2017-May-18 20:26N 37°13' E 025°34'4 9.4
2017-May-18 20:00N 37°17' E 025°31'5 9.4
2017-May-18 19:31N 37°18' E 025°25'5 9.4
2017-May-18 19:01N 37°18' E 025°20'5 9.1
2017-May-18 18:30N 37°19' E 025°14'4 9.0
2017-May-18 18:00N 37°20' E 025°08'5 9.1
2017-May-18 17:30N 37°20' E 025°03'4 9.0
2017-May-18 17:00N 37°21' E 024°57'5 9.2
2017-May-18 16:30N 37°22' E 024°51'5 9.4
2017-May-18 16:01N 37°24' E 024°46'  
2017-May-16 01:57N 37°24' E 024°44'4 9.8
2017-May-16 01:31N 37°22' E 024°49'510.1
2017-May-16 01:01N 37°20' E 024°55'810.0
2017-May-16 00:12N 37°19' E 025°05'210.0
2017-May-16 00:00N 37°19' E 025°08'5 9.9
2017-May-15 23:31N 37°19' E 025°14'510.0
2017-May-15 23:01N 37°19' E 025°20'510.0
2017-May-15 22:30N 37°19' E 025°26'5 9.7
2017-May-15 22:01N 37°19' E 025°32'9 9.7
2017-May-15 21:03N 37°18' E 025°44'1 9.9
2017-May-15 20:59N 37°18' E 025°45'5 9.9
2017-May-15 20:30N 37°18' E 025°51'  
Track history (hours):
 
Tides and Currents Weather Stations Pressure Air Temp Water Temp Dewpoint Dewpoint Depression Visibility Wind Speed Wind Dir Waves Ship Positions

Mariq

Last reported at 2017-May-21 03:38 UTC. Time now 2017-May-23 17:04 UTC.
Position N 37°17' E 025°53'.

Length 57 m.

Type: Tanker. MMSI: 239758424.

Date/timePositionNaut miles runAvg speedWind from/ knotsBaromVisibWave heightAir tempDewpointWater temp
2017-May-21 03:38N 37°17' E 025°53'1 9.3
2017-May-21 03:31N 37°17' E 025°52'5 9.3
2017-May-21 03:00N 37°18' E 025°46'7 9.2
2017-May-21 02:14N 37°18' E 025°37'2 9.3
2017-May-21 02:00N 37°19' E 025°34'5 9.3
2017-May-21 01:30N 37°19' E 025°28'5 9.1
2017-May-21 01:00N 37°19' E 025°23'4 8.9
2017-May-21 00:30N 37°20' E 025°17'4 9.0
2017-May-21 00:00N 37°20' E 025°11'5 9.3
2017-May-20 23:31N 37°20' E 025°06'5 9.3
2017-May-20 23:01N 37°21' E 024°60'5 9.3
2017-May-20 22:30N 37°21' E 024°54'4 9.0
2017-May-20 22:00N 37°23' E 024°49'46 1.0
2017-May-18 21:29N 37°06' E 025°43'5 9.6
2017-May-18 21:00N 37°10' E 025°39'5 9.6
2017-May-18 20:26N 37°13' E 025°34'4 9.4
2017-May-18 20:00N 37°17' E 025°31'5 9.4
2017-May-18 19:31N 37°18' E 025°25'5 9.4
2017-May-18 19:01N 37°18' E 025°20'5 9.1
2017-May-18 18:30N 37°19' E 025°14'4 9.0
2017-May-18 18:00N 37°20' E 025°08'5 9.1
2017-May-18 17:30N 37°20' E 025°03'4 9.0
2017-May-18 17:00N 37°21' E 024°57'5 9.2
2017-May-18 16:30N 37°22' E 024°51'5 9.4
2017-May-18 16:01N 37°24' E 024°46'  
2017-May-16 01:57N 37°24' E 024°44'4 9.8
2017-May-16 01:31N 37°22' E 024°49'510.1
2017-May-16 01:01N 37°20' E 024°55'810.0
2017-May-16 00:12N 37°19' E 025°05'210.0
2017-May-16 00:00N 37°19' E 025°08'5 9.9
2017-May-15 23:31N 37°19' E 025°14'510.0
2017-May-15 23:01N 37°19' E 025°20'510.0
2017-May-15 22:30N 37°19' E 025°26'5 9.7
2017-May-15 22:01N 37°19' E 025°32'9 9.7
2017-May-15 21:03N 37°18' E 025°44'1 9.9
2017-May-15 20:59N 37°18' E 025°45'5 9.9
2017-May-15 20:30N 37°18' E 025°51'  

Dump ship's entire track history